createdAt,value
2018-03-19T00:02:11.164Z,69.90
2018-03-19T00:04:39.615Z,68.70
2018-03-19T00:07:07.920Z,68.40
2018-03-19T00:09:36.233Z,67.30
2018-03-19T00:12:04.485Z,67.60
2018-03-19T00:14:32.785Z,67.90
2018-03-19T00:17:01.805Z,68.00
2018-03-19T00:19:30.153Z,68.00
2018-03-19T00:22:00.401Z,67.50
2018-03-19T00:24:28.654Z,67.50
2018-03-19T00:26:57.680Z,66.30
2018-03-19T00:29:25.940Z,66.30
2018-03-19T00:31:54.160Z,68.10
2018-03-19T00:34:22.393Z,67.70
2018-03-19T00:36:50.718Z,67.10
2018-03-19T00:39:18.963Z,65.80
2018-03-19T00:41:47.941Z,66.50
2018-03-19T00:44:17.552Z,66.50
2018-03-19T00:46:45.777Z,66.20
2018-03-19T00:49:13.991Z,68.00
2018-03-19T00:54:12.981Z,66.10
2018-03-19T00:56:41.956Z,66.40
2018-03-19T00:59:10.169Z,66.40
2018-03-19T01:01:38.484Z,64.80
2018-03-19T01:04:06.722Z,66.70
2018-03-19T01:06:34.937Z,68.00
2018-03-19T01:09:03.220Z,67.80
2018-03-19T01:11:33.305Z,67.10
2018-03-19T01:14:01.601Z,66.50
2018-03-19T01:16:29.868Z,66.70
2018-03-19T01:18:58.061Z,66.20
2018-03-19T01:21:26.293Z,66.40
2018-03-19T01:23:55.511Z,66.00
2018-03-19T01:26:23.709Z,66.00
2018-03-19T01:28:52.069Z,67.30
2018-03-19T01:31:20.340Z,66.90
2018-03-19T01:33:48.684Z,66.90
2018-03-19T01:36:16.812Z,66.70
2018-03-19T01:38:45.053Z,65.60
2018-03-19T01:41:14.100Z,64.70
2018-03-19T01:43:42.303Z,64.70
2018-03-19T01:46:11.506Z,66.20
2018-03-19T01:48:39.732Z,66.10
2018-03-19T01:51:07.960Z,67.20
2018-03-19T01:53:36.947Z,67.10
2018-03-19T01:56:05.153Z,67.10
2018-03-19T01:58:33.430Z,67.30
2018-03-19T02:01:01.713Z,66.90
2018-03-19T02:03:30.081Z,67.30
2018-03-19T02:05:58.304Z,66.70
2018-03-19T02:08:26.598Z,66.90
2018-03-19T02:10:54.804Z,67.70
2018-03-19T02:13:23.854Z,66.20
2018-03-19T02:15:52.073Z,66.90
2018-03-19T02:18:20.338Z,66.30
2018-03-19T02:20:49.393Z,66.60
2018-03-19T02:23:17.635Z,66.50
2018-03-19T02:25:45.864Z,67.10
2018-03-19T02:28:14.149Z,68.20
2018-03-19T02:30:43.284Z,67.50
2018-03-19T02:33:12.246Z,66.20
2018-03-19T02:35:41.229Z,67.30
2018-03-19T02:38:10.251Z,67.30
2018-03-19T02:40:38.466Z,67.30
2018-03-19T02:43:06.685Z,67.60
2018-03-19T02:45:35.762Z,67.10
2018-03-19T02:48:04.039Z,66.50
2018-03-19T02:50:32.285Z,66.60
2018-03-19T02:53:00.581Z,66.10
2018-03-19T02:55:28.838Z,66.50
2018-03-19T02:57:57.800Z,68.30
2018-03-19T03:00:26.093Z,68.30
2018-03-19T03:02:54.323Z,66.90
2018-03-19T03:05:23.381Z,65.60
2018-03-19T03:07:51.599Z,65.60
2018-03-19T03:10:20.620Z,66.60
2018-03-19T03:12:48.843Z,66.50
2018-03-19T03:15:17.185Z,68.30
2018-03-19T03:17:45.417Z,67.60
2018-03-19T03:20:14.396Z,68.20
2018-03-19T03:22:43.481Z,66.70
2018-03-19T03:25:11.693Z,66.70
2018-03-19T03:27:40.704Z,68.00
2018-03-19T03:30:08.938Z,68.00
2018-03-19T03:32:37.172Z,68.30
2018-03-19T03:35:05.499Z,68.20
2018-03-19T03:37:34.616Z,68.10
2018-03-19T03:40:03.061Z,68.10
2018-03-19T03:42:31.378Z,64.90
2018-03-19T03:44:59.696Z,66.80
2018-03-19T03:47:27.945Z,65.30
2018-03-19T03:49:56.896Z,66.10
2018-03-19T03:52:25.976Z,66.30
2018-03-19T03:54:54.146Z,66.30
2018-03-19T03:57:22.348Z,66.10
2018-03-19T03:59:52.557Z,65.60
2018-03-19T04:02:21.681Z,65.10
2018-03-19T04:04:49.871Z,65.00
2018-03-19T04:07:18.086Z,66.30
2018-03-19T04:09:46.289Z,64.70
2018-03-19T04:12:14.551Z,66.90
2018-03-19T04:14:42.774Z,65.70
2018-03-19T04:17:11.324Z,65.80
2018-03-19T04:19:40.286Z,65.30
2018-03-19T04:22:08.682Z,65.30
2018-03-19T04:24:36.966Z,65.30
2018-03-19T04:27:05.971Z,67.00
2018-03-19T04:29:34.411Z,67.00
2018-03-19T04:32:02.617Z,66.00
2018-03-19T04:34:31.730Z,64.60
2018-03-19T04:36:59.972Z,64.60
2018-03-19T04:39:28.163Z,64.90
2018-03-19T04:41:57.246Z,66.20
2018-03-19T04:44:25.527Z,66.30
2018-03-19T04:46:53.842Z,66.30
2018-03-19T04:49:22.852Z,66.70
2018-03-19T04:51:51.151Z,66.60
2018-03-19T04:54:19.354Z,66.60
2018-03-19T04:56:48.364Z,67.20
2018-03-19T04:59:16.616Z,67.10
2018-03-19T05:01:44.824Z,67.10
2018-03-19T05:04:13.054Z,66.80
2018-03-19T05:06:41.348Z,66.50
2018-03-19T05:09:10.340Z,66.90
2018-03-19T05:11:39.353Z,67.60
2018-03-19T05:14:07.571Z,67.30
2018-03-19T05:16:35.801Z,66.70
2018-03-19T05:19:04.090Z,67.10
2018-03-19T05:21:32.340Z,67.40
2018-03-19T05:24:01.540Z,67.80
2018-03-19T05:26:29.742Z,67.70
2018-03-19T05:28:59.349Z,67.20
2018-03-19T05:31:27.613Z,67.30
2018-03-19T05:33:56.588Z,67.60
2018-03-19T05:36:26.102Z,68.00
2018-03-19T05:38:54.935Z,68.00
2018-03-19T05:41:23.158Z,69.10
2018-03-19T05:43:51.377Z,70.30
2018-03-19T05:46:19.605Z,68.50
2018-03-19T05:48:47.832Z,69.00
2018-03-19T05:51:16.103Z,66.80
2018-03-19T05:53:44.406Z,68.90
2018-03-19T05:56:12.692Z,67.20
2018-03-19T05:58:40.929Z,67.90
2018-03-19T06:01:09.210Z,69.10
2018-03-19T06:03:37.455Z,68.30
2018-03-19T06:06:06.461Z,65.80
2018-03-19T06:08:34.656Z,65.80
2018-03-19T06:11:02.892Z,66.70
2018-03-19T06:13:31.932Z,65.10
2018-03-19T06:16:00.151Z,65.10
2018-03-19T06:18:28.369Z,66.20
2018-03-19T06:20:56.648Z,64.40
2018-03-19T06:23:24.921Z,64.10
2018-03-19T06:25:53.914Z,65.50
2018-03-19T06:28:22.945Z,64.40
2018-03-19T06:30:51.190Z,64.40
2018-03-19T06:33:19.485Z,66.30
2018-03-19T06:35:47.788Z,64.70
2018-03-19T06:38:16.012Z,66.10
2018-03-19T06:40:44.389Z,65.90
2018-03-19T06:43:12.654Z,65.80
2018-03-19T06:45:40.879Z,66.60
2018-03-19T06:48:09.140Z,66.40
2018-03-19T06:50:37.445Z,65.50
2018-03-19T06:53:05.654Z,63.90
2018-03-19T06:55:34.089Z,62.70
2018-03-19T06:58:02.332Z,63.20
2018-03-19T07:00:30.633Z,64.70
2018-03-19T07:02:58.830Z,61.60
2018-03-19T07:05:28.277Z,61.70
2018-03-19T07:07:56.493Z,63.90
2018-03-19T07:10:24.718Z,62.50
2018-03-19T07:12:53.784Z,63.80
2018-03-19T07:15:22.851Z,64.80
2018-03-19T07:17:51.180Z,64.80
2018-03-19T07:20:19.600Z,61.90
2018-03-19T07:22:47.813Z,58.50
2018-03-19T07:25:16.788Z,58.10
2018-03-19T07:27:45.008Z,58.10
2018-03-19T07:30:13.220Z,58.70
2018-03-19T07:32:41.428Z,57.90
2018-03-19T07:35:09.648Z,58.50
2018-03-19T07:37:37.912Z,59.00
2018-03-19T07:40:06.122Z,58.80
2018-03-19T07:42:34.441Z,59.20
2018-03-19T07:45:02.685Z,59.20
2018-03-19T07:47:30.909Z,58.10
2018-03-19T07:49:59.140Z,57.60
2018-03-19T07:52:27.356Z,60.50
2018-03-19T07:54:55.569Z,58.70
2018-03-19T07:57:23.815Z,57.10
2018-03-19T07:59:52.021Z,57.50
2018-03-19T08:02:20.248Z,58.50
2018-03-19T08:04:49.251Z,58.20
2018-03-19T08:07:18.273Z,57.60
2018-03-19T08:09:46.529Z,57.60
2018-03-19T08:12:14.829Z,55.70
2018-03-19T08:14:43.015Z,56.40
2018-03-19T08:17:11.226Z,59.40
2018-03-19T08:19:39.445Z,58.20
2018-03-19T08:22:07.673Z,57.10
2018-03-19T08:24:35.885Z,55.80
2018-03-19T08:27:07.122Z,55.90
2018-03-19T08:29:35.332Z,53.70
2018-03-19T08:32:03.573Z,54.80
2018-03-19T08:34:31.821Z,52.60
2018-03-19T08:37:00.054Z,53.00
2018-03-19T08:39:28.285Z,51.30
2018-03-19T08:41:57.309Z,54.40
2018-03-19T08:44:25.565Z,54.40
2018-03-19T08:46:54.508Z,50.70
2018-03-19T08:49:23.009Z,50.70
2018-03-19T08:51:51.209Z,49.00
2018-03-19T08:54:20.291Z,50.70
2018-03-19T08:56:48.605Z,50.70
2018-03-19T08:59:16.835Z,48.90
2018-03-19T09:01:45.037Z,50.70
2018-03-19T09:04:13.329Z,49.30
2018-03-19T09:06:42.285Z,51.00
2018-03-19T09:09:10.508Z,51.00
2018-03-19T09:11:40.065Z,48.30
2018-03-19T09:14:09.056Z,51.00
2018-03-19T09:16:37.364Z,51.00
2018-03-19T09:19:05.594Z,49.20
2018-03-19T09:21:33.888Z,47.60
2018-03-19T09:24:02.129Z,47.80
2018-03-19T09:26:30.407Z,48.10
2018-03-19T09:28:58.698Z,48.30
2018-03-19T09:31:26.881Z,46.20
2018-03-19T09:33:55.144Z,47.50
2018-03-19T09:36:23.390Z,48.50
2018-03-19T09:38:51.594Z,45.80
2018-03-19T09:41:19.824Z,46.60
2018-03-19T09:43:48.047Z,46.20
2018-03-19T09:46:16.264Z,45.10
2018-03-19T09:48:45.265Z,44.50
2018-03-19T09:51:20.148Z,44.70
2018-03-19T09:53:50.793Z,44.60
2018-03-19T09:56:19.009Z,44.20
2018-03-19T09:58:47.962Z,41.00
2018-03-19T10:01:16.269Z,41.00
2018-03-19T10:06:10.230Z,42.20
2018-03-19T10:08:38.447Z,38.80
2018-03-19T10:11:06.729Z,40.70
2018-03-19T10:13:35.069Z,37.60
2018-03-19T10:16:04.109Z,33.10
2018-03-19T10:18:32.338Z,33.20
2018-03-19T10:21:01.333Z,34.10
2018-03-19T10:23:30.496Z,37.70
2018-03-19T10:25:58.716Z,37.10
2018-03-19T10:28:27.673Z,38.70
2018-03-19T10:30:55.921Z,38.70
2018-03-19T10:33:24.157Z,38.20
2018-03-19T10:35:53.105Z,38.40
2018-03-19T10:38:23.879Z,38.40
2018-03-19T10:40:52.108Z,39.90
2018-03-19T10:43:20.339Z,39.20
2018-03-19T10:45:49.355Z,36.30
2018-03-19T10:48:17.557Z,36.30
2018-03-19T10:50:45.752Z,41.00
2018-03-19T10:53:14.028Z,40.50
2018-03-19T10:55:42.261Z,39.40
2018-03-19T10:58:10.497Z,38.90
2018-03-19T11:00:39.058Z,39.10
2018-03-19T11:03:07.260Z,43.00
2018-03-19T11:05:42.301Z,41.40
2018-03-19T11:08:11.319Z,41.80
2018-03-19T11:10:39.673Z,41.70
2018-03-19T11:13:08.705Z,38.40
2018-03-19T11:15:36.938Z,38.40
2018-03-19T11:18:05.154Z,38.90
2018-03-19T11:20:33.773Z,38.70
2018-03-19T11:23:02.758Z,37.50
2018-03-19T11:25:31.014Z,37.40
2018-03-19T11:27:59.257Z,33.70
2018-03-19T11:30:28.234Z,32.50
2018-03-19T11:32:57.390Z,30.70
2018-03-19T11:35:25.929Z,30.60
2018-03-19T11:37:55.014Z,30.40
2018-03-19T11:40:23.318Z,30.30
2018-03-19T11:42:51.574Z,30.20
2018-03-19T11:45:20.826Z,35.20
2018-03-19T11:47:49.039Z,35.30
2018-03-19T11:50:18.041Z,35.60
2018-03-19T11:52:46.543Z,35.80
2018-03-19T11:55:14.862Z,37.50
2018-03-19T11:57:43.126Z,42.50
2018-03-19T12:00:11.400Z,41.50
2018-03-19T12:02:39.852Z,39.10
2018-03-19T12:05:09.001Z,36.20
2018-03-19T12:07:37.203Z,36.10
2018-03-19T12:10:06.180Z,34.10
2018-03-19T12:12:34.491Z,34.10
2018-03-19T12:15:02.800Z,32.40
2018-03-19T12:17:31.009Z,29.90
2018-03-19T12:19:59.238Z,29.30
2018-03-19T12:22:27.525Z,30.80
2018-03-19T12:24:55.725Z,30.30
2018-03-19T12:27:24.019Z,29.30
2018-03-19T12:29:53.070Z,29.10
2018-03-19T12:32:21.261Z,29.20
2018-03-19T12:34:49.486Z,29.90
2018-03-19T12:37:17.688Z,28.30
2018-03-19T12:39:45.935Z,26.70
2018-03-19T12:42:14.268Z,28.80
2018-03-19T12:44:42.468Z,27.90
2018-03-19T12:47:11.505Z,26.30
2018-03-19T12:49:39.783Z,26.20
2018-03-19T12:52:07.987Z,27.00
2018-03-19T12:54:36.226Z,27.10
2018-03-19T12:57:04.481Z,26.00
2018-03-19T12:59:33.468Z,25.80
2018-03-19T13:02:01.671Z,25.80
2018-03-19T13:04:30.061Z,28.60
2018-03-19T13:06:58.339Z,26.80
2018-03-19T13:09:26.578Z,28.00
2018-03-19T13:11:55.920Z,26.90
2018-03-19T13:14:24.238Z,26.80
2018-03-19T13:16:52.456Z,28.50
2018-03-19T13:19:20.719Z,29.90
2018-03-19T13:21:49.680Z,33.00
2018-03-19T13:24:18.689Z,32.10
2018-03-19T13:26:47.698Z,34.00
2018-03-19T13:29:15.922Z,34.00
2018-03-19T13:31:44.227Z,36.40
2018-03-19T13:34:12.472Z,36.50
2018-03-19T13:36:40.696Z,38.30
2018-03-19T13:39:08.896Z,38.40
2018-03-19T13:41:37.150Z,40.20
2018-03-19T13:44:06.132Z,40.70
2018-03-19T13:46:35.113Z,43.50
2018-03-19T13:49:03.402Z,43.50
2018-03-19T13:51:32.368Z,43.20
2018-03-19T13:54:01.397Z,43.10
2018-03-19T13:56:30.111Z,41.50
2018-03-19T13:58:58.551Z,39.70
2018-03-19T14:01:26.880Z,41.60
2018-03-19T14:03:55.156Z,41.40
2018-03-19T14:06:23.370Z,40.80
2018-03-19T14:08:51.605Z,39.90
2018-03-19T14:11:19.901Z,40.80
2018-03-19T14:13:48.100Z,42.50
2018-03-19T14:16:16.406Z,44.80
2018-03-19T14:18:45.440Z,45.50
2018-03-19T14:21:13.633Z,45.40
2018-03-19T14:23:42.120Z,46.90
2018-03-19T14:26:11.127Z,48.40
2018-03-19T14:28:39.390Z,48.40
2018-03-19T14:31:07.593Z,48.80
2018-03-19T14:33:35.965Z,47.60
2018-03-19T14:36:04.318Z,48.40
2018-03-19T14:38:32.604Z,48.20
2018-03-19T14:43:24.148Z,48.10
2018-03-19T14:45:52.542Z,48.20
2018-03-19T14:48:20.892Z,49.70
2018-03-19T14:50:49.168Z,50.00
2018-03-19T14:53:17.342Z,49.60
2018-03-19T14:55:45.562Z,49.70
2018-03-19T14:58:13.795Z,50.10
2018-03-19T15:00:42.836Z,50.30
2018-03-19T15:03:12.792Z,49.50
2018-03-19T15:05:41.091Z,49.50
2018-03-19T15:08:10.020Z,50.60
2018-03-19T15:10:38.461Z,50.60
2018-03-19T15:13:06.736Z,51.20
2018-03-19T15:15:35.070Z,51.10
2018-03-19T15:18:04.063Z,51.70
2018-03-19T15:20:33.515Z,52.40
2018-03-19T15:23:01.805Z,52.40
2018-03-19T15:25:30.190Z,53.50
2018-03-19T15:27:58.590Z,54.30
2018-03-19T15:30:26.897Z,55.10
2018-03-19T15:32:55.126Z,54.30
2018-03-19T15:35:23.368Z,55.00
2018-03-19T15:37:51.629Z,55.60
2018-03-19T15:40:20.017Z,54.20
2018-03-19T15:42:48.266Z,51.60
2018-03-19T15:45:17.237Z,51.40
2018-03-19T15:47:45.441Z,51.20
2018-03-19T15:50:14.537Z,50.90
2018-03-19T15:52:42.739Z,50.70
2018-03-19T15:55:11.040Z,51.50
2018-03-19T15:57:39.260Z,52.20
2018-03-19T16:00:08.268Z,52.80
2018-03-19T16:02:36.471Z,52.80
2018-03-19T16:05:04.704Z,53.40
2018-03-19T16:07:33.736Z,54.40
2018-03-19T16:10:01.935Z,54.50
2018-03-19T16:12:32.710Z,53.80
2018-03-19T16:15:01.733Z,55.60
2018-03-19T16:17:29.949Z,55.60
2018-03-19T16:19:58.284Z,56.90
2018-03-19T16:22:26.587Z,56.40
2018-03-19T16:24:55.218Z,57.50
2018-03-19T16:27:24.610Z,58.80
2018-03-19T16:29:52.897Z,58.80
2018-03-19T16:32:21.118Z,57.50
2018-03-19T16:34:49.402Z,59.40
2018-03-19T16:37:17.621Z,58.40
2018-03-19T16:39:46.642Z,59.40
2018-03-19T16:42:14.937Z,59.40
2018-03-19T16:44:43.875Z,60.20
2018-03-19T16:47:12.065Z,60.20
2018-03-19T16:49:40.318Z,60.90
2018-03-19T16:52:08.546Z,60.80
2018-03-19T16:54:36.739Z,60.80
2018-03-19T16:57:04.995Z,60.70
2018-03-19T16:59:33.222Z,61.90
2018-03-19T17:02:01.415Z,61.60
2018-03-19T17:04:29.708Z,62.20
2018-03-19T17:06:57.912Z,61.60
2018-03-19T17:09:26.137Z,62.70
2018-03-19T17:11:55.431Z,61.10
2018-03-19T17:14:23.772Z,61.10
2018-03-19T17:16:52.001Z,60.30
2018-03-19T17:19:20.325Z,62.00
2018-03-19T17:21:48.592Z,63.50
2018-03-19T17:24:16.786Z,62.40
2018-03-19T17:26:45.089Z,63.80
2018-03-19T17:29:14.101Z,63.70
2018-03-19T17:31:42.433Z,63.60
2018-03-19T17:34:10.760Z,63.90
2018-03-19T17:36:39.721Z,63.40
2018-03-19T17:39:08.712Z,64.50
2018-03-19T17:41:37.838Z,65.20
2018-03-19T17:44:06.026Z,65.20
2018-03-19T17:46:34.364Z,64.80
2018-03-19T17:49:03.404Z,64.70
2018-03-19T17:51:31.621Z,64.80
2018-03-19T17:53:59.843Z,65.10
2018-03-19T17:56:28.096Z,64.60
2018-03-19T17:58:56.383Z,63.00
2018-03-19T18:01:24.716Z,64.00
2018-03-19T18:03:53.009Z,64.50
2018-03-19T18:06:22.277Z,64.30
2018-03-19T18:08:51.317Z,63.90
2018-03-19T18:11:20.393Z,63.50
2018-03-19T18:13:48.712Z,63.50
2018-03-19T18:16:17.225Z,66.40
2018-03-19T18:18:45.844Z,64.40
2018-03-19T18:21:14.104Z,64.90
2018-03-19T18:23:42.348Z,63.90
2018-03-19T18:26:10.760Z,64.00
2018-03-19T18:28:39.036Z,65.60
2018-03-19T18:31:07.228Z,65.20
2018-03-19T18:33:36.477Z,64.10
2018-03-19T18:36:04.716Z,64.10
2018-03-19T18:38:33.958Z,64.90
2018-03-19T18:41:02.321Z,64.70
2018-03-19T18:43:30.644Z,65.10
2018-03-19T18:45:59.053Z,64.80
2018-03-19T18:48:27.400Z,65.00
2018-03-19T18:50:55.974Z,65.30
2018-03-19T18:53:24.176Z,64.40
2018-03-19T18:55:53.263Z,65.60
2018-03-19T18:58:21.660Z,65.60
2018-03-19T19:00:51.161Z,66.10
2018-03-19T19:03:19.573Z,66.10
2018-03-19T19:05:47.909Z,65.50
2018-03-19T19:08:17.029Z,64.80
2018-03-19T19:10:46.500Z,64.80
2018-03-19T19:13:14.816Z,66.00
2018-03-19T19:15:43.140Z,65.50
2018-03-19T19:18:11.413Z,65.80
2018-03-19T19:23:17.426Z,64.70
2018-03-19T19:25:46.805Z,65.60
2018-03-19T19:28:15.343Z,65.70
2018-03-19T19:30:44.506Z,65.10
2018-03-19T19:33:12.726Z,64.80
2018-03-19T19:35:41.280Z,65.20
2018-03-19T19:38:09.685Z,65.10
2018-03-19T19:40:38.086Z,64.10
2018-03-19T19:43:06.280Z,64.80
2018-03-19T19:45:34.539Z,64.70
2018-03-19T19:48:02.773Z,64.10
2018-03-19T19:50:31.732Z,63.10
2018-03-19T19:53:00.039Z,63.10
2018-03-19T19:55:29.017Z,64.90
2018-03-19T19:57:57.257Z,64.90
2018-03-19T20:00:25.524Z,64.60
2018-03-19T20:02:53.724Z,64.90
2018-03-19T20:05:21.978Z,63.90
2018-03-19T20:07:50.193Z,64.10
2018-03-19T20:10:19.233Z,62.90
2018-03-19T20:12:47.522Z,63.10
2018-03-19T20:15:16.039Z,64.80
2018-03-19T20:17:44.333Z,62.70
2018-03-19T20:20:13.535Z,65.20
2018-03-19T20:22:42.923Z,63.60
2018-03-19T20:25:11.548Z,63.50
2018-03-19T20:27:39.900Z,63.00
2018-03-19T20:30:08.624Z,62.70
2018-03-19T20:32:37.383Z,63.10
2018-03-19T20:35:05.573Z,63.00
2018-03-19T20:37:33.895Z,63.80
2018-03-19T20:40:02.154Z,63.20
2018-03-19T20:42:30.400Z,63.60
2018-03-19T20:44:58.787Z,62.20
2018-03-19T20:47:27.021Z,61.80
2018-03-19T20:49:55.285Z,60.20
2018-03-19T20:52:23.638Z,61.20
2018-03-19T20:54:51.819Z,61.20
2018-03-19T20:57:20.065Z,61.30
2018-03-19T20:59:48.337Z,61.30
2018-03-19T21:02:16.617Z,61.50
2018-03-19T21:04:44.852Z,61.50
2018-03-19T21:07:13.133Z,63.40
2018-03-19T21:09:42.116Z,63.00
2018-03-19T21:12:11.086Z,63.10
2018-03-19T21:14:41.034Z,63.00
2018-03-19T21:17:09.398Z,62.40
2018-03-19T21:19:37.652Z,62.20
2018-03-19T21:22:05.918Z,62.90
2018-03-19T21:24:34.132Z,62.10
2018-03-19T21:27:02.373Z,62.10
2018-03-19T21:29:30.610Z,61.50
2018-03-19T21:31:59.000Z,59.80
2018-03-19T21:34:27.996Z,62.50
2018-03-19T21:36:56.641Z,62.50
2018-03-19T21:39:24.864Z,62.20
2018-03-19T21:41:53.139Z,61.20
2018-03-19T21:44:21.459Z,62.90
2018-03-19T21:46:49.716Z,63.10
2018-03-19T21:49:18.096Z,60.80
2018-03-19T21:51:46.424Z,62.20
2018-03-19T21:54:14.629Z,63.00
2018-03-19T21:56:42.996Z,62.10
2018-03-19T21:59:11.502Z,63.10
2018-03-19T22:01:39.900Z,62.20
2018-03-19T22:04:10.803Z,62.70
2018-03-19T22:06:40.292Z,64.00
2018-03-19T22:09:09.241Z,64.20
2018-03-19T22:11:38.365Z,64.50
2018-03-19T22:14:06.743Z,64.80
2018-03-19T22:16:34.985Z,65.60
2018-03-19T22:19:03.350Z,65.00
2018-03-19T22:21:31.597Z,65.90
2018-03-19T22:24:00.590Z,65.90
2018-03-19T22:26:28.768Z,66.60
2018-03-19T22:28:59.268Z,65.70
2018-03-19T22:31:27.518Z,66.30
2018-03-19T22:33:55.744Z,65.10
2018-03-19T22:36:24.790Z,65.70
2018-03-19T22:38:53.118Z,65.80
2018-03-19T22:41:22.096Z,66.10
2018-03-19T22:43:51.102Z,65.70
2018-03-19T22:46:20.090Z,63.50
2018-03-19T22:48:48.281Z,63.60
2018-03-19T22:51:16.529Z,63.80
2018-03-19T22:53:44.786Z,63.70
2018-03-19T22:56:12.993Z,64.50
2018-03-19T22:58:41.994Z,64.70
2018-03-19T23:01:11.033Z,65.30
2018-03-19T23:03:39.192Z,65.20
2018-03-19T23:06:07.429Z,64.60
2018-03-19T23:08:36.474Z,64.90
2018-03-19T23:11:04.682Z,64.90
2018-03-19T23:13:33.022Z,65.00
2018-03-19T23:16:01.253Z,64.90
2018-03-19T23:18:30.236Z,64.70
2018-03-19T23:20:59.268Z,66.00
2018-03-19T23:23:27.477Z,66.10
2018-03-19T23:25:55.717Z,65.70
2018-03-19T23:28:23.966Z,66.60
2018-03-19T23:30:52.940Z,65.80
2018-03-19T23:33:21.204Z,65.80
2018-03-19T23:35:49.433Z,65.80
2018-03-19T23:38:17.666Z,66.90
2018-03-19T23:40:45.980Z,67.60
2018-03-19T23:43:14.960Z,68.40
2018-03-19T23:45:43.956Z,69.20
2018-03-19T23:48:12.961Z,69.60
2018-03-19T23:50:41.261Z,69.50
2018-03-19T23:53:09.468Z,69.00
2018-03-19T23:55:37.733Z,69.40
2018-03-19T23:58:08.394Z,68.70
